Time;durP1;ratioP1;P1;durP2;ratioP2;P2;SDS_P1;SDS_P2;PMS_P1;PMS_P2;Temp;Humidity;BMP_temperature;BMP_pressure;BME280_temperature;BME280_humidity;BME280_pressure;Samples;Min_cycle;Max_cycle;Signal;HPM_P1;HPM_P2
2023/03/09 00:01:29;;;;;;;31.90;22.70;;;;;;;1.52;100.00;98266.11;110348;1273;22521;-69
2023/03/09 00:03:58;;;;;;;30.10;22.20;;;;;;;1.58;100.00;98259.36;110382;1275;22429;-69
2023/03/09 00:06:27;;;;;;;29.70;21.10;;;;;;;1.64;100.00;98252.85;110405;1272;23351;-69
2023/03/09 00:08:56;;;;;;;29.70;21.40;;;;;;;1.70;100.00;98238.70;110396;1270;22310;-69
2023/03/09 00:11:24;;;;;;;32.90;23.10;;;;;;;1.70;100.00;98232.04;110387;1268;22368;-69
2023/03/09 00:13:56;;;;;;;30.90;21.50;;;;;;;1.71;100.00;98222.66;110384;1270;22213;-69
2023/03/09 00:16:27;;;;;;;28.00;20.80;;;;;;;1.76;100.00;98218.42;110354;1273;22219;-69
2023/03/09 00:18:57;;;;;;;29.90;20.60;;;;;;;1.83;100.00;98214.69;110404;1275;22329;-69
2023/03/09 00:21:37;;;;;;;28.60;20.40;;;;;;;1.88;100.00;98204.84;110320;1273;22240;-69
2023/03/09 00:24:07;;;;;;;25.80;18.80;;;;;;;1.89;100.00;98196.13;110314;1275;23070;-69
2023/03/09 00:26:38;;;;;;;24.80;17.60;;;;;;;1.88;100.00;98188.56;110393;1260;22295;-69
2023/03/09 00:29:08;;;;;;;25.30;18.30;;;;;;;1.95;100.00;98180.04;109130;1273;22573;-68
2023/03/09 00:31:36;;;;;;;20.80;16.20;;;;;;;2.05;100.00;98166.55;107569;1271;27403;-68
2023/03/09 00:34:05;;;;;;;26.80;17.50;;;;;;;2.13;100.00;98156.80;107678;1271;23309;-68
2023/03/09 00:36:34;;;;;;;22.20;16.40;;;;;;;2.17;100.00;98152.01;107597;1271;25338;-68
2023/03/09 00:39:04;;;;;;;22.80;16.90;;;;;;;2.19;100.00;98147.78;107621;1270;25405;-68
2023/03/09 00:41:34;;;;;;;24.00;16.70;;;;;;;2.28;100.00;98143.61;107465;1275;25418;-68
2023/03/09 00:44:07;;;;;;;20.90;15.80;;;;;;;2.37;100.00;98143.84;107561;1267;25386;-68
2023/03/09 00:46:35;;;;;;;21.70;15.10;;;;;;;2.44;100.00;98131.91;107577;1257;22551;-68
2023/03/09 00:49:05;;;;;;;23.80;16.20;;;;;;;2.50;100.00;98123.41;107512;1275;23351;-68
2023/03/09 00:51:36;;;;;;;21.70;15.50;;;;;;;2.53;100.00;98124.13;107628;1274;22547;-68
2023/03/09 00:54:05;;;;;;;20.80;14.80;;;;;;;2.62;100.00;98128.38;107575;1273;25389;-68
2023/03/09 00:56:33;;;;;;;20.40;15.00;;;;;;;2.69;100.00;98129.28;107594;1274;22527;-68
2023/03/09 00:59:02;;;;;;;19.50;14.20;;;;;;;2.75;100.00;98126.95;107744;1270;23128;-68
2023/03/09 01:01:30;;;;;;;21.10;14.90;;;;;;;2.74;100.00;98125.17;107615;1270;23235;-68
2023/03/09 01:04:00;;;;;;;20.10;14.60;;;;;;;2.75;100.00;98125.40;107573;1269;22563;-68
2023/03/09 01:06:30;;;;;;;20.40;14.00;;;;;;;2.83;100.00;98133.23;107512;1274;22516;-68
2023/03/09 01:08:59;;;;;;;17.50;12.30;;;;;;;2.91;100.00;98131.34;107608;1271;25962;-68
2023/03/09 01:11:34;;;;;;;19.10;13.20;;;;;;;3.00;100.00;98127.46;107548;1269;25256;-68
2023/03/09 01:14:03;;;;;;;17.80;12.30;;;;;;;3.03;100.00;98117.15;110390;1275;23045;-68
2023/03/09 01:16:31;;;;;;;16.40;12.60;;;;;;;3.06;100.00;98100.13;110379;1275;22210;-68
2023/03/09 01:19:02;;;;;;;17.10;12.70;;;;;;;3.18;100.00;98091.61;110257;1271;23111;-69
2023/03/09 01:21:31;;;;;;;17.70;12.10;;;;;;;3.30;100.00;98082.56;110300;1273;22201;-69
2023/03/09 01:24:00;;;;;;;16.40;11.70;;;;;;;3.38;100.00;98071.23;110375;1274;22422;-69
2023/03/09 01:26:29;;;;;;;17.90;12.10;;;;;;;3.42;100.00;98064.95;110325;1275;22902;-69
2023/03/09 01:28:58;;;;;;;17.30;12.40;;;;;;;3.44;100.00;98060.86;110383;1275;22500;-69
2023/03/09 01:31:26;;;;;;;16.70;11.40;;;;;;;3.48;100.00;98062.16;110423;1275;22288;-69
2023/03/09 01:33:55;;;;;;;15.20;11.10;;;;;;;3.52;100.00;98071.32;110384;1275;22283;-69
2023/03/09 01:36:28;;;;;;;16.70;11.80;;;;;;;3.55;100.00;98076.27;110361;1269;22410;-69
2023/03/09 01:38:57;;;;;;;15.90;11.90;;;;;;;3.51;100.00;98078.63;110287;1272;22243;-69
2023/03/09 01:41:27;;;;;;;15.30;11.20;;;;;;;3.51;100.00;98069.33;108631;1275;25981;-68
2023/03/09 01:43:55;;;;;;;16.40;11.50;;;;;;;3.56;100.00;98061.48;107503;1271;22641;-68
2023/03/09 01:46:32;;;;;;;16.60;11.30;;;;;;;3.58;100.00;98060.13;107333;1273;25357;-68
2023/03/09 01:49:23;;;;;;;14.60;10.20;;;;;;;3.60;100.00;98056.11;107386;1275;26561;-68
2023/03/09 01:52:15;;;;;;;15.00;11.20;;;;;;;3.58;100.00;98062.82;108117;1274;25299;-68
2023/03/09 01:54:52;;;;;;;17.20;11.70;;;;;;;3.59;100.00;98066.38;107530;1275;25493;-69
2023/03/09 01:57:32;;;;;;;14.20;10.30;;;;;;;3.66;100.00;98064.83;110133;1270;22505;-69
2023/03/09 02:00:24;;;;;;;14.70;10.60;;;;;;;3.74;100.00;98063.01;110390;1268;23237;-69
2023/03/09 02:03:03;;;;;;;17.00;11.30;;;;;;;3.77;100.00;98054.71;110231;1275;22228;-69
2023/03/09 02:05:38;;;;;;;17.00;11.70;;;;;;;3.77;100.00;98048.45;110202;1269;22260;-69
2023/03/09 02:08:07;;;;;;;15.30;10.70;;;;;;;3.85;100.00;98046.42;110359;1270;22426;-69
2023/03/09 02:10:45;;;;;;;14.10;10.10;;;;;;;3.95;100.00;98048.42;110242;1275;22302;-69
2023/03/09 02:13:16;;;;;;;15.20;10.80;;;;;;;4.02;100.00;98049.44;110324;1274;22274;-69
2023/03/09 02:15:44;;;;;;;17.00;12.20;;;;;;;4.03;100.00;98048.42;110267;1267;23271;-68
2023/03/09 02:18:12;;;;;;;15.60;11.10;;;;;;;4.03;100.00;98041.84;110245;1270;22175;-69
2023/03/09 02:20:56;;;;;;;16.90;11.50;;;;;;;4.10;100.00;98042.77;110190;1275;22730;-69
2023/03/09 02:23:46;;;;;;;15.80;11.50;;;;;;;4.20;100.00;98040.16;110259;1270;22422;-69
2023/03/09 02:26:40;;;;;;;16.70;10.60;;;;;;;4.20;100.00;98035.91;110353;1274;22300;-69
2023/03/09 02:29:10;;;;;;;17.30;11.60;;;;;;;4.19;100.00;98035.90;110258;1273;22968;-68
2023/03/09 02:31:40;;;;;;;15.80;11.30;;;;;;;4.21;100.00;98036.77;110353;1268;22431;-68
2023/03/09 02:34:09;;;;;;;15.10;11.20;;;;;;;4.28;100.00;98032.77;110270;1274;22313;-68
2023/03/09 02:36:39;;;;;;;16.00;11.50;;;;;;;4.33;100.00;98031.36;110261;1270;22270;-68
2023/03/09 02:39:37;;;;;;;16.10;11.30;;;;;;;4.33;100.00;98025.52;110271;1268;22359;-68
2023/03/09 02:42:06;;;;;;;17.70;11.60;;;;;;;4.32;100.00;98017.19;107404;1270;23415;-68
2023/03/09 02:44:34;;;;;;;16.80;11.50;;;;;;;4.37;100.00;98021.27;107518;1275;23261;-68
2023/03/09 02:47:07;;;;;;;16.10;11.20;;;;;;;4.41;100.00;98029.24;107757;1270;25365;-67
2023/03/09 02:49:37;;;;;;;15.40;11.20;;;;;;;4.40;100.00;98027.62;107612;1275;25325;-68
2023/03/09 02:52:06;;;;;;;16.20;11.80;;;;;;;4.36;100.00;98029.36;107418;1270;25366;-68
2023/03/09 02:54:36;;;;;;;18.20;11.40;;;;;;;4.36;100.00;98030.70;107736;1269;25536;-68
2023/03/09 02:57:06;;;;;;;16.90;11.60;;;;;;;4.39;100.00;98027.31;107638;1268;25404;-68
2023/03/09 02:59:35;;;;;;;17.10;11.40;;;;;;;4.43;100.00;98028.09;107340;1270;24372;-67
2023/03/09 03:02:03;;;;;;;15.90;11.20;;;;;;;4.43;100.00;98027.94;107515;1269;22520;-67
2023/03/09 03:04:32;;;;;;;16.30;11.30;;;;;;;4.39;100.00;98034.10;107691;1270;25503;-67
2023/03/09 03:07:01;;;;;;;15.50;10.90;;;;;;;4.40;100.00;98033.12;107378;1273;22942;-67
2023/03/09 03:09:30;;;;;;;17.10;11.70;;;;;;;4.44;100.00;98037.95;107752;1275;23369;-68
2023/03/09 03:12:06;;;;;;;15.60;10.90;;;;;;;4.45;100.00;98036.23;107406;1274;25392;-68
2023/03/09 03:14:36;;;;;;;17.20;11.80;;;;;;;4.39;100.00;98031.61;107592;1272;26721;-67
2023/03/09 03:17:05;;;;;;;15.20;11.40;;;;;;;4.36;100.00;98029.08;107659;1275;22516;-67
2023/03/09 03:19:35;;;;;;;15.40;11.30;;;;;;;4.37;100.00;98025.38;107599;1275;22578;-67
2023/03/09 03:22:03;;;;;;;15.00;11.20;;;;;;;4.39;100.00;98021.54;107512;1269;26333;-67
2023/03/09 03:24:37;;;;;;;16.10;11.60;;;;;;;4.35;100.00;98026.49;110332;1269;23210;-68
2023/03/09 03:27:06;;;;;;;14.80;11.40;;;;;;;4.31;100.00;98027.21;110335;1271;22339;-68
2023/03/09 03:29:34;;;;;;;15.00;10.80;;;;;;;4.33;100.00;98019.92;110247;1270;23048;-68
2023/03/09 03:32:02;;;;;;;14.70;10.80;;;;;;;4.35;100.00;98024.45;108087;1273;22753;-68
2023/03/09 03:34:31;;;;;;;14.80;10.60;;;;;;;4.31;100.00;98022.48;107487;1269;22551;-69
2023/03/09 03:37:04;;;;;;;15.50;10.90;;;;;;;4.27;100.00;98021.35;107415;1275;22550;-68
2023/03/09 03:39:35;;;;;;;15.10;11.20;;;;;;;4.29;100.00;98020.64;107457;1271;25419;-68
2023/03/09 03:42:05;;;;;;;14.70;11.10;;;;;;;4.30;100.00;98016.71;108000;1270;25371;-67
2023/03/09 03:44:35;;;;;;;18.00;11.90;;;;;;;4.26;100.00;98007.13;107316;1274;25338;-68
2023/03/09 03:47:04;;;;;;;15.20;10.40;;;;;;;4.22;100.00;98003.80;107435;1270;25245;-68
2023/03/09 03:49:33;;;;;;;17.90;12.10;;;;;;;4.24;100.00;98002.17;107675;1269;22645;-68
2023/03/09 03:52:03;;;;;;;14.70;10.80;;;;;;;4.27;100.00;97997.44;107715;1268;22782;-68
2023/03/09 03:54:32;;;;;;;14.90;10.60;;;;;;;4.26;100.00;97998.77;107531;1268;25639;-68
2023/03/09 03:57:01;;;;;;;14.80;10.60;;;;;;;4.23;100.00;97990.81;107607;1273;22569;-68
2023/03/09 03:59:30;;;;;;;16.60;11.40;;;;;;;4.24;100.00;97985.14;107375;1272;25601;-67
2023/03/09 04:01:58;;;;;;;15.20;10.80;;;;;;;4.27;100.00;97968.44;107495;1274;25358;-68
2023/03/09 04:04:28;;;;;;;14.80;10.90;;;;;;;4.32;100.00;97966.98;107460;1276;22533;-68
2023/03/09 04:07:06;;;;;;;15.00;11.00;;;;;;;4.29;100.00;97964.02;107503;1268;25331;-68
2023/03/09 04:09:34;;;;;;;17.20;11.20;;;;;;;4.26;100.00;97970.38;107206;1269;26689;-68
2023/03/09 04:12:03;;;;;;;15.80;10.80;;;;;;;4.29;100.00;97972.96;107451;1270;25397;-68
2023/03/09 04:14:38;;;;;;;14.80;10.90;;;;;;;4.31;100.00;97968.93;107462;1275;22972;-68
2023/03/09 04:17:09;;;;;;;16.40;11.20;;;;;;;4.29;100.00;97962.45;110345;1268;22991;-68
2023/03/09 04:19:37;;;;;;;16.40;10.80;;;;;;;4.26;100.00;97958.20;110269;1270;22414;-68
2023/03/09 04:22:08;;;;;;;16.60;10.60;;;;;;;4.29;100.00;97961.61;110243;1269;22229;-68
2023/03/09 04:24:37;;;;;;;14.50;11.20;;;;;;;4.31;100.00;97959.39;110265;1273;22283;-68
2023/03/09 04:27:05;;;;;;;13.50;10.60;;;;;;;4.29;100.00;97958.48;110309;1268;23176;-68
2023/03/09 04:29:44;;;;;;;14.10;10.40;;;;;;;4.27;100.00;97952.34;110291;1274;22401;-68
2023/03/09 04:32:14;;;;;;;14.30;10.40;;;;;;;4.29;100.00;97944.46;110323;1275;22199;-68
2023/03/09 04:34:44;;;;;;;14.30;10.80;;;;;;;4.33;100.00;97940.26;110234;1269;22846;-69
2023/03/09 04:37:13;;;;;;;15.30;11.10;;;;;;;4.31;100.00;97926.52;110291;1273;22422;-68
2023/03/09 04:39:41;;;;;;;14.80;11.20;;;;;;;4.30;100.00;97921.19;110354;1268;22969;-68
2023/03/09 04:42:09;;;;;;;14.70;11.10;;;;;;;4.34;100.00;97918.54;110355;1275;22440;-68
2023/03/09 04:44:38;;;;;;;17.40;11.50;;;;;;;4.37;100.00;97909.36;110274;1275;22233;-68
2023/03/09 04:47:06;;;;;;;17.20;11.50;;;;;;;4.34;100.00;97892.30;110222;1269;22215;-68
2023/03/09 04:49:42;;;;;;;15.00;10.70;;;;;;;4.28;100.00;97884.50;110289;1271;22262;-68
2023/03/09 04:52:10;;;;;;;14.70;11.20;;;;;;;4.31;100.00;97886.33;110305;1275;23189;-68
2023/03/09 04:54:39;;;;;;;14.20;10.50;;;;;;;4.34;100.00;97874.64;110282;1270;22441;-68
2023/03/09 04:57:08;;;;;;;17.10;11.70;;;;;;;4.31;100.00;97870.87;110386;1272;22833;-68
2023/03/09 04:59:37;;;;;;;13.70;10.60;;;;;;;4.26;100.00;97866.05;110281;1273;22419;-68
2023/03/09 05:03:57;;;;;;;13.70;11.00;;;;;;;4.34;100.00;97854.69;103719;1302;545695;-67
2023/03/09 05:06:27;;;;;;;14.30;10.90;;;;;;;4.30;100.00;97852.88;109620;1286;22810;-67
2023/03/09 05:08:58;;;;;;;14.50;11.30;;;;;;;4.30;100.00;97849.81;109599;1281;22538;-67
2023/03/09 05:11:31;;;;;;;16.80;11.20;;;;;;;4.36;100.00;97844.34;109503;1283;22668;-67
2023/03/09 05:14:00;;;;;;;14.20;10.70;;;;;;;4.41;100.00;97845.29;109498;1286;23401;-67
2023/03/09 05:16:31;;;;;;;15.60;11.40;;;;;;;4.43;100.00;97845.33;109275;1283;324383;-67
2023/03/09 05:19:00;;;;;;;14.80;11.10;;;;;;;4.44;100.00;97848.23;109346;1279;25983;-67
2023/03/09 05:21:37;;;;;;;18.20;13.20;;;;;;;4.51;100.00;97842.27;106869;1283;23471;-67
2023/03/09 05:24:08;;;;;;;15.50;12.00;;;;;;;4.57;100.00;97841.84;106754;1286;25344;-67
2023/03/09 05:26:37;;;;;;;15.80;11.70;;;;;;;4.59;100.00;97845.56;106696;1285;25261;-66
2023/03/09 05:29:07;;;;;;;13.30;10.30;;;;;;;4.59;100.00;97851.38;106883;1279;25350;-66
2023/03/09 05:31:38;;;;;;;13.00;10.10;;;;;;;4.66;100.00;97853.29;107171;1285;22542;-67
2023/03/09 05:34:17;;;;;;;14.10;10.70;;;;;;;4.73;100.00;97856.25;106658;1282;25328;-67
2023/03/09 05:36:45;;;;;;;14.90;11.10;;;;;;;4.76;100.00;97851.44;106866;1284;27598;-67
2023/03/09 05:39:19;;;;;;;15.50;10.70;;;;;;;4.76;100.00;97845.45;106809;1280;24288;-66
2023/03/09 05:41:49;;;;;;;14.30;10.50;;;;;;;4.81;100.00;97835.55;106852;1279;22526;-67
2023/03/09 05:44:23;;;;;;;14.00;10.50;;;;;;;4.87;100.00;97832.49;106729;1284;25427;-67
2023/03/09 05:46:54;;;;;;;14.10;10.60;;;;;;;4.91;100.00;97837.80;107054;1280;26717;-68
2023/03/09 05:49:27;;;;;;;16.90;10.60;;;;;;;4.92;100.00;97833.58;107060;1282;25861;-68
2023/03/09 05:51:55;;;;;;;15.70;11.00;;;;;;;4.94;100.00;97838.52;106811;1280;22756;-68
2023/03/09 05:54:24;;;;;;;12.30;9.50;;;;;;;5.02;100.00;97843.27;107356;1280;25386;-68
2023/03/09 05:56:55;;;;;;;13.70;10.20;;;;;;;5.12;100.00;97844.27;106874;1280;22536;-68
2023/03/09 05:59:27;;;;;;;14.90;11.10;;;;;;;5.14;100.00;97841.06;108648;1282;22892;-68
2023/03/09 06:01:55;;;;;;;13.30;10.10;;;;;;;5.17;100.00;97839.48;108208;1282;22644;-68
2023/03/09 06:04:26;;;;;;;12.90;9.80;;;;;;;5.27;100.00;97838.70;106796;1279;23702;-68
2023/03/09 06:06:57;;;;;;;12.40;9.50;;;;;;;5.35;100.00;97836.26;106755;1283;24314;-68
2023/03/09 06:09:30;;;;;;;14.40;10.00;;;;;;;5.39;100.00;97838.75;106881;1279;25343;-68
2023/03/09 06:11:59;;;;;;;13.00;10.00;;;;;;;5.41;100.00;97837.70;107409;1279;27204;-68
2023/03/09 06:14:28;;;;;;;14.20;9.50;;;;;;;5.49;100.00;97833.86;106942;1280;22600;-69
2023/03/09 06:16:57;;;;;;;12.80;8.80;;;;;;;5.61;100.00;97831.48;106867;1279;25340;-68
2023/03/09 06:19:26;;;;;;;12.90;9.50;;;;;;;5.68;100.00;97831.78;106847;1279;22836;-68
2023/03/09 06:21:54;;;;;;;13.40;9.60;;;;;;;5.72;100.00;97831.46;106859;1282;23205;-68
2023/03/09 06:24:28;;;;;;;12.90;9.40;;;;;;;5.77;100.00;97827.90;108199;1271;22418;-68
2023/03/09 06:27:00;;;;;;;12.10;8.80;;;;;;;5.88;100.00;97827.84;110078;1276;22195;-68
2023/03/09 06:29:38;;;;;;;12.10;9.60;;;;;;;6.02;100.00;97831.86;110035;1270;22265;-69
2023/03/09 06:32:07;;;;;;;13.00;9.20;;;;;;;6.07;100.00;97828.30;110028;1270;22965;-69
2023/03/09 06:34:36;;;;;;;12.80;9.50;;;;;;;6.12;100.00;97825.09;110064;1276;22680;-69
2023/03/09 06:37:07;;;;;;;12.60;9.20;;;;;;;6.24;100.00;97829.41;110002;1271;23155;-69
2023/03/09 06:39:36;;;;;;;11.40;9.10;;;;;;;6.41;100.00;97820.98;109986;1272;23593;-69
2023/03/09 06:42:05;;;;;;;12.50;9.80;;;;;;;6.51;100.00;97822.90;110050;1278;24584;-69
2023/03/09 06:44:44;;;;;;;12.30;9.10;;;;;;;6.64;100.00;97820.45;107282;1272;25375;-69
2023/03/09 06:47:12;;;;;;;14.30;9.70;;;;;;;6.74;100.00;97812.83;107490;1270;22534;-69
2023/03/09 06:49:43;;;;;;;12.80;9.40;;;;;;;6.90;100.00;97812.59;107229;1278;22525;-69
2023/03/09 06:52:13;;;;;;;12.30;8.70;;;;;;;7.05;100.00;97809.15;107593;1277;25343;-69
2023/03/09 06:54:45;;;;;;;13.90;9.70;;;;;;;7.11;100.00;97801.70;107398;1278;26134;-69
2023/03/09 06:57:17;;;;;;;12.30;9.50;;;;;;;7.18;100.00;97804.29;107395;1276;25382;-69
2023/03/09 06:59:45;;;;;;;12.80;8.90;;;;;;;7.29;100.00;97802.37;107363;1276;22915;-69
2023/03/09 07:02:13;;;;;;;12.90;8.70;;;;;;;7.45;100.00;97798.23;107359;1271;25321;-69
2023/03/09 07:04:41;;;;;;;14.30;8.90;;;;;;;7.57;100.00;97793.65;107200;1273;22653;-69
2023/03/09 07:07:10;;;;;;;12.60;9.40;;;;;;;7.65;100.00;97793.17;107416;1274;23871;-69
2023/03/09 07:09:38;;;;;;;13.50;8.60;;;;;;;7.72;100.00;97792.01;107418;1277;25938;-69
2023/03/09 07:12:07;;;;;;;11.40;8.00;;;;;;;7.82;100.00;97785.80;107414;1270;22520;-68
2023/03/09 07:14:36;;;;;;;12.00;8.90;;;;;;;7.94;100.00;97782.53;107406;1273;23305;-69
2023/03/09 07:17:05;;;;;;;12.00;8.70;;;;;;;7.99;100.00;97786.48;107285;1278;25424;-69
2023/03/09 07:19:33;;;;;;;12.20;8.90;;;;;;;8.05;100.00;97782.36;107419;1271;22668;-68
2023/03/09 07:22:02;;;;;;;11.10;8.20;;;;;;;8.17;100.00;97782.38;107441;1273;22551;-69
2023/03/09 07:24:31;;;;;;;11.00;8.20;;;;;;;8.37;100.00;97780.08;107377;1273;22749;-69
2023/03/09 07:27:00;;;;;;;10.50;8.10;;;;;;;8.53;100.00;97777.06;107234;1271;25473;-69
2023/03/09 07:29:28;;;;;;;9.50;7.60;;;;;;;8.62;100.00;97773.77;107364;1273;25353;-69
2023/03/09 07:31:56;;;;;;;11.70;7.80;;;;;;;8.69;100.00;97774.30;110174;1277;23041;-69
2023/03/09 07:34:25;;;;;;;11.00;7.30;;;;;;;8.78;100.00;97770.14;110269;1273;22955;-69
2023/03/09 07:36:55;;;;;;;9.80;7.40;;;;;;;8.91;100.00;97764.71;108289;1278;22791;-68
2023/03/09 07:39:24;;;;;;;10.40;7.60;;;;;;;8.98;100.00;97767.86;110210;1273;23026;-69
2023/03/09 07:41:52;;;;;;;10.00;7.50;;;;;;;9.04;100.00;97765.44;110179;1271;22424;-68
2023/03/09 07:44:22;;;;;;;11.50;7.30;;;;;;;9.10;100.00;97771.48;110243;1270;22371;-68
2023/03/09 07:46:50;;;;;;;9.20;7.10;;;;;;;9.12;100.00;97775.23;110223;1271;23519;-69
2023/03/09 07:49:18;;;;;;;8.30;6.50;;;;;;;9.12;100.00;97774.17;109962;1278;23865;-68
2023/03/09 07:51:47;;;;;;;8.70;6.70;;;;;;;9.17;100.00;97778.45;107313;1273;22528;-70
2023/03/09 07:54:15;;;;;;;9.20;7.20;;;;;;;9.12;100.00;97774.79;107123;1273;22917;-68
2023/03/09 07:56:50;;;;;;;10.80;7.20;;;;;;;9.08;100.00;97776.19;107441;1276;22525;-68
2023/03/09 07:59:20;;;;;;;9.20;7.10;;;;;;;9.08;100.00;97774.09;110198;1278;23123;-68
2023/03/09 08:01:48;;;;;;;8.40;5.90;;;;;;;9.11;100.00;97772.80;110141;1272;22169;-68
2023/03/09 08:04:16;;;;;;;9.10;6.00;;;;;;;9.29;100.00;97775.22;110207;1273;22279;-68
2023/03/09 08:06:45;;;;;;;8.10;6.00;;;;;;;9.51;100.00;97773.58;110014;1278;22931;-69
2023/03/09 08:09:14;;;;;;;9.40;6.80;;;;;;;9.72;100.00;97772.40;110180;1273;22395;-69
2023/03/09 08:11:43;;;;;;;8.80;6.30;;;;;;;9.98;100.00;97764.23;110060;1277;22232;-69
2023/03/09 08:14:13;;;;;;;8.30;5.70;;;;;;;10.15;100.00;97755.70;109984;1275;22287;-69
2023/03/09 08:16:41;;;;;;;8.30;5.90;;;;;;;10.31;100.00;97757.25;110217;1273;22516;-69
2023/03/09 08:19:10;;;;;;;8.20;5.80;;;;;;;10.45;100.00;97746.94;110226;1276;22849;-69
2023/03/09 08:21:39;;;;;;;8.00;5.30;;;;;;;10.63;100.00;97748.00;110194;1277;22425;-68
2023/03/09 08:24:08;;;;;;;9.50;6.10;;;;;;;10.72;100.00;97741.13;110134;1270;22563;-69
2023/03/09 08:26:37;;;;;;;7.70;5.20;;;;;;;10.76;100.00;97742.38;110169;1271;22363;-69
2023/03/09 08:29:05;;;;;;;8.00;5.90;;;;;;;10.84;100.00;97738.91;110190;1271;22271;-69
2023/03/09 08:31:36;;;;;;;7.50;5.40;;;;;;;11.00;100.00;97738.38;110213;1271;22418;-69
2023/03/09 08:34:05;;;;;;;8.10;5.40;;;;;;;11.23;100.00;97742.02;110162;1274;23303;-69
2023/03/09 08:36:33;;;;;;;7.00;5.40;;;;;;;11.50;100.00;97743.32;110226;1278;24043;-69
2023/03/09 08:39:01;;;;;;;7.50;5.50;;;;;;;11.77;100.00;97734.91;110274;1278;22219;-69
2023/03/09 08:41:29;;;;;;;7.50;5.30;;;;;;;11.94;100.00;97731.46;110197;1276;22404;-69
2023/03/09 08:43:59;;;;;;;7.80;4.80;;;;;;;12.00;100.00;97732.88;108908;1271;22591;-69
2023/03/09 08:46:28;;;;;;;7.90;5.10;;;;;;;12.10;100.00;97732.25;107516;1273;25346;-69
2023/03/09 08:49:00;;;;;;;8.00;5.30;;;;;;;12.20;100.00;97727.27;107348;1276;22806;-69
2023/03/09 08:51:29;;;;;;;6.50;5.00;;;;;;;12.26;100.00;97730.48;107322;1278;25491;-69
2023/03/09 08:53:57;;;;;;;7.40;5.20;;;;;;;12.24;100.00;97732.36;107680;1273;25422;-69
2023/03/09 08:56:26;;;;;;;7.10;5.10;;;;;;;12.12;100.00;97734.39;107373;1278;24378;-69
2023/03/09 08:58:55;;;;;;;8.80;5.10;;;;;;;12.00;100.00;97736.48;107407;1270;25338;-69
2023/03/09 09:01:23;;;;;;;7.90;5.20;;;;;;;11.92;100.00;97736.92;107529;1270;22523;-69
2023/03/09 09:03:53;;;;;;;7.00;5.50;;;;;;;11.85;100.00;97737.20;107669;1271;22595;-69
2023/03/09 09:06:21;;;;;;;8.30;5.40;;;;;;;11.77;100.00;97737.26;107405;1274;25358;-69
2023/03/09 09:08:50;;;;;;;8.70;5.50;;;;;;;11.72;100.00;97739.91;107307;1277;23266;-69
2023/03/09 09:11:19;;;;;;;9.30;5.60;;;;;;;11.70;100.00;97745.58;107375;1270;25468;-69
2023/03/09 09:13:47;;;;;;;8.00;5.40;;;;;;;11.65;100.00;97748.41;107446;1273;22547;-69
2023/03/09 09:16:16;;;;;;;7.70;5.70;;;;;;;11.55;100.00;97751.55;107369;1273;22642;-68
2023/03/09 09:18:47;;;;;;;8.10;5.40;;;;;;;11.47;100.00;97752.57;107808;1270;22516;-69
2023/03/09 09:21:16;;;;;;;6.80;5.10;;;;;;;11.43;100.00;97749.67;107376;1271;22520;-69
2023/03/09 09:23:45;;;;;;;7.90;5.10;;;;;;;11.40;100.00;97749.08;110454;1274;23281;-69
2023/03/09 09:26:14;;;;;;;8.50;5.70;;;;;;;11.34;100.00;97754.34;110312;1267;23185;-69
2023/03/09 09:28:47;;;;;;;7.70;5.10;;;;;;;11.30;100.00;97754.63;110453;1270;22240;-69
2023/03/09 09:31:17;;;;;;;7.50;5.00;;;;;;;11.28;100.00;97755.40;110468;1273;22439;-69
2023/03/09 09:33:46;;;;;;;5.90;4.70;;;;;;;11.29;100.00;97760.40;110386;1267;22525;-69
2023/03/09 09:36:18;;;;;;;6.70;5.00;;;;;;;11.31;100.00;97758.34;110459;1274;22260;-69
2023/03/09 09:38:48;;;;;;;6.20;4.80;;;;;;;11.36;100.00;97754.88;110446;1270;23063;-69
2023/03/09 09:41:18;;;;;;;7.90;5.70;;;;;;;11.44;100.00;97750.23;110476;1274;22201;-69
2023/03/09 09:43:47;;;;;;;7.50;5.40;;;;;;;11.50;100.00;97758.84;110481;1268;22829;-69
2023/03/09 09:46:16;;;;;;;6.50;4.20;;;;;;;11.56;100.00;97755.02;110374;1274;22190;-69
2023/03/09 09:48:45;;;;;;;9.00;5.00;;;;;;;11.58;100.00;97748.40;110347;1275;23087;-70
2023/03/09 09:51:44;;;;;;;7.20;4.50;;;;;;;11.63;100.00;97747.13;110452;1272;22214;-69
2023/03/09 09:54:36;;;;;;;7.50;4.90;;;;;;;11.65;100.00;97749.46;110430;1273;22253;-69
2023/03/09 09:57:18;;;;;;;7.80;5.30;;;;;;;11.66;100.00;97743.20;110414;1272;22220;-69
2023/03/09 10:00:01;;;;;;;6.70;4.70;;;;;;;11.71;100.00;97740.55;110310;1272;22957;-69
2023/03/09 10:02:49;;;;;;;7.10;5.40;;;;;;;11.71;100.00;97742.88;110311;1272;22388;-69
2023/03/09 10:05:35;;;;;;;6.50;5.00;;;;;;;11.70;100.00;97744.01;110425;1270;22374;-69
2023/03/09 10:08:35;;;;;;;6.50;5.20;;;;;;;11.73;100.00;97739.91;110470;1273;22282;-69
2023/03/09 10:11:12;;;;;;;8.10;5.00;;;;;;;11.80;100.00;97733.79;110311;1273;22958;-68
2023/03/09 10:13:47;;;;;;;7.50;4.70;;;;;;;11.80;100.00;97723.65;110165;1272;22888;-69
2023/03/09 10:16:22;;;;;;;8.50;4.90;;;;;;;11.84;100.00;97723.73;110109;1272;22229;-69
2023/03/09 10:18:54;;;;;;;6.70;5.00;;;;;;;11.87;100.00;97715.16;110325;1274;22460;-69
2023/03/09 10:21:35;;;;;;;7.40;5.00;;;;;;;11.94;100.00;97714.49;110242;1273;22239;-69
2023/03/09 10:24:15;;;;;;;7.00;5.40;;;;;;;12.09;100.00;97706.02;110393;1274;22212;-69
2023/03/09 10:26:50;;;;;;;7.50;4.80;;;;;;;12.20;100.00;97704.30;110436;1273;22198;-69
2023/03/09 10:29:24;;;;;;;7.10;4.40;;;;;;;12.33;100.00;97702.15;110235;1271;25057;-69
2023/03/09 10:32:00;;;;;;;6.80;4.80;;;;;;;12.43;100.00;97698.26;107969;1274;22538;-69
2023/03/09 10:34:29;;;;;;;9.00;4.70;;;;;;;12.45;100.00;97694.27;107693;1270;22996;-69
2023/03/09 10:37:00;;;;;;;6.50;4.30;;;;;;;12.39;100.00;97694.95;109195;1267;29021;-69
2023/03/09 10:39:33;;;;;;;7.80;4.70;;;;;;;12.31;100.00;97693.24;107731;1269;22537;-69
2023/03/09 10:42:15;;;;;;;7.70;4.30;;;;;;;12.24;100.00;97694.30;107648;1269;25363;-68
2023/03/09 10:44:44;;;;;;;7.60;4.90;;;;;;;12.13;100.00;97691.30;107688;1267;23883;-68
2023/03/09 10:47:56;;;;;;;5.60;3.70;;;;;;;12.03;100.00;97689.98;107751;1273;23325;-68
2023/03/09 10:50:49;;;;;;;6.40;4.30;;;;;;;11.95;100.00;97690.46;107702;1274;26712;-68
2023/03/09 10:53:30;;;;;;;5.70;4.20;;;;;;;11.92;100.00;97688.23;107329;1270;22655;-68
2023/03/09 10:56:04;;;;;;;7.20;4.30;;;;;;;11.96;100.00;97690.56;107912;1267;25087;-69
2023/03/09 10:58:37;;;;;;;8.20;4.50;;;;;;;12.05;100.00;97683.83;107706;1273;22585;-69
2023/03/09 11:01:11;;;;;;;8.20;4.30;;;;;;;12.15;100.00;97679.46;108850;1267;25344;-68
2023/03/09 11:03:45;;;;;;;6.30;4.20;;;;;;;12.25;100.00;97675.04;107469;1272;22712;-69
2023/03/09 11:06:16;;;;;;;6.40;4.40;;;;;;;12.36;100.00;97670.55;107531;1269;22816;-68
2023/03/09 11:08:53;;;;;;;5.90;4.10;;;;;;;12.49;100.00;97665.46;107626;1270;23223;-68
2023/03/09 11:11:42;;;;;;;9.50;3.80;;;;;;;12.60;100.00;97664.10;107659;1267;22567;-69
2023/03/09 11:14:23;;;;;;;7.90;4.60;;;;;;;12.69;100.00;97664.17;107309;1274;23351;-69
2023/03/09 11:16:56;;;;;;;5.70;4.10;;;;;;;12.78;100.00;97657.02;107555;1270;24494;-69
2023/03/09 11:19:25;;;;;;;8.00;4.60;;;;;;;12.81;100.00;97652.83;107493;1274;22521;-69
2023/03/09 11:21:55;;;;;;;6.30;4.20;;;;;;;12.84;100.00;97644.65;110480;1273;22275;-69
2023/03/09 11:24:27;;;;;;;7.50;4.20;;;;;;;12.89;100.00;97643.13;110423;1274;22991;-69
2023/03/09 11:27:00;;;;;;;6.10;4.10;;;;;;;12.97;100.00;97642.41;110201;1267;23374;-70
2023/03/09 11:29:44;;;;;;;5.80;4.20;;;;;;;13.07;100.00;97636.73;110396;1270;22353;-70
2023/03/09 11:32:13;;;;;;;7.70;4.00;;;;;;;13.22;100.00;97640.64;110233;1276;22364;-69
2023/03/09 11:34:42;;;;;;;5.80;3.80;;;;;;;13.35;100.00;97637.33;110374;1267;23588;-70
2023/03/09 11:37:11;;;;;;;5.90;3.80;;;;;;;13.49;100.00;97633.25;110143;1271;22363;-69